Time;durP1;ratioP1;P1;durP2;ratioP2;P2;SDS_P1;SDS_P2;PMS_P1;PMS_P2;Temp;Humidity;BMP_temperature;BMP_pressure;BME280_temperature;BME280_humidity;BME280_pressure;Samples;Min_cycle;Max_cycle;Signal;HPM_P1;HPM_P2
2023/01/11 00:01:50;;;;;;;7.90;6.75;;;9.20;99.90;;;;;;5066399;28;20118;-89
2023/01/11 00:04:16;;;;;;;9.57;7.15;;;9.20;99.90;;;;;;5081070;28;20043;-89
2023/01/11 00:06:42;;;;;;;9.07;6.72;;;9.30;99.90;;;;;;5081770;28;20044;-90
2023/01/11 00:09:08;;;;;;;8.20;6.72;;;9.30;99.90;;;;;;5065892;28;20043;-90
2023/01/11 00:11:33;;;;;;;9.82;7.07;;;9.30;99.90;;;;;;5081666;28;20384;-90
2023/01/11 00:13:59;;;;;;;9.02;6.88;;;9.30;99.90;;;;;;5081732;28;20108;-89
2023/01/11 00:16:24;;;;;;;8.55;6.88;;;9.30;99.90;;;;;;5078112;28;20233;-89
2023/01/11 00:18:50;;;;;;;8.95;6.80;;;9.30;99.90;;;;;;5077379;28;20036;-89
2023/01/11 00:21:16;;;;;;;8.85;7.20;;;9.30;99.90;;;;;;5068151;28;20096;-89
2023/01/11 00:23:47;;;;;;;8.85;6.85;;;9.40;99.90;;;;;;5081153;28;20040;-89
2023/01/11 00:26:15;;;;;;;9.50;7.38;;;9.40;99.90;;;;;;5084286;28;20039;-89
2023/01/11 00:28:41;;;;;;;8.65;6.93;;;9.40;99.90;;;;;;5064809;28;20529;-89
2023/01/11 00:31:07;;;;;;;9.18;6.90;;;9.40;99.90;;;;;;5081192;28;20028;-87
2023/01/11 00:33:33;;;;;;;7.18;6.25;;;9.50;99.90;;;;;;5082609;28;21307;-89
2023/01/11 00:35:58;;;;;;;8.00;6.70;;;9.50;99.90;;;;;;5082350;28;20101;-89
2023/01/11 00:38:42;;;;;;;7.38;6.15;;;9.50;99.90;;;;;;5064971;28;20101;-90
2023/01/11 00:49:27;;;;;;;6.40;5.75;;;9.60;99.90;;;;;;5099870;27;20039;-89
2023/01/11 00:51:52;;;;;;;7.55;5.90;;;9.60;99.90;;;;;;5077758;28;20326;-90
2023/01/11 00:54:19;;;;;;;8.23;5.90;;;9.60;99.90;;;;;;5079405;28;20498;-89
2023/01/11 00:56:45;;;;;;;8.18;6.10;;;9.60;99.90;;;;;;5081934;28;20489;-90
2023/01/11 00:59:10;;;;;;;8.07;6.03;;;9.70;99.90;;;;;;5100931;27;20377;-90
2023/01/11 01:01:36;;;;;;;9.38;5.95;;;9.70;99.90;;;;;;5064365;28;20040;-90
2023/01/11 01:04:02;;;;;;;8.50;6.20;;;9.70;99.90;;;;;;5065474;28;20035;-89
2023/01/11 01:06:28;;;;;;;7.57;5.93;;;9.70;99.90;;;;;;5079734;28;20036;-90
2023/01/11 01:08:56;;;;;;;7.30;5.90;;;9.70;99.90;;;;;;5065743;28;20036;-89
2023/01/11 01:11:23;;;;;;;7.60;6.32;;;9.70;99.90;;;;;;5065723;28;20160;-89
2023/01/11 01:16:33;;;;;;;7.15;5.93;;;9.80;99.90;;;;;;5080671;28;20485;-89
2023/01/11 01:18:58;;;;;;;7.22;6.00;;;9.80;99.90;;;;;;5080313;28;20908;-89
2023/01/11 01:21:25;;;;;;;7.25;5.28;;;9.80;99.90;;;;;;5062439;28;20067;-89
2023/01/11 01:23:52;;;;;;;7.80;5.85;;;9.90;99.90;;;;;;5063717;28;20081;-90
2023/01/11 01:26:18;;;;;;;8.30;5.80;;;9.90;99.90;;;;;;5079811;28;21433;-89
2023/01/11 01:28:44;;;;;;;6.22;5.20;;;9.90;99.90;;;;;;5063404;28;20047;-91
2023/01/11 01:31:09;;;;;;;6.40;5.13;;;9.90;99.90;;;;;;5064219;28;20040;-90
2023/01/11 01:33:35;;;;;;;6.85;6.10;;;9.90;99.90;;;;;;5083627;28;20040;-89
2023/01/11 01:36:02;;;;;;;5.82;5.22;;;9.90;99.90;;;;;;5069518;28;20068;-90
2023/01/11 01:38:31;;;;;;;6.55;5.10;;;9.90;99.90;;;;;;5063445;28;20046;-89
2023/01/11 01:40:57;;;;;;;5.53;4.95;;;10.00;99.90;;;;;;5069393;28;20303;-89
2023/01/11 01:43:43;;;;;;;6.55;5.18;;;10.00;99.90;;;;;;5082866;28;20125;-89
2023/01/11 01:46:09;;;;;;;9.52;5.53;;;10.10;99.90;;;;;;5076736;28;20057;-89
2023/01/11 01:48:39;;;;;;;6.38;5.32;;;10.00;99.90;;;;;;5067464;28;20035;-89
2023/01/11 01:51:08;;;;;;;5.88;5.25;;;10.10;99.90;;;;;;5080264;28;20439;-89
2023/01/11 01:53:46;;;;;;;7.57;5.25;;;10.20;99.90;;;;;;5078915;28;20048;-90
2023/01/11 01:56:29;;;;;;;6.43;5.07;;;10.20;99.90;;;;;;5068231;28;20075;-90
2023/01/11 01:58:59;;;;;;;7.30;5.30;;;10.20;99.90;;;;;;5080406;28;20425;-89
2023/01/11 02:01:48;;;;;;;7.72;4.63;;;10.20;99.90;;;;;;5063246;28;20040;-88
2023/01/11 02:04:37;;;;;;;5.97;4.80;;;10.20;99.90;;;;;;5066165;28;20127;-89
2023/01/11 02:07:19;;;;;;;5.22;4.40;;;10.30;99.90;;;;;;5083928;28;20122;-88
2023/01/11 02:10:16;;;;;;;5.95;4.25;;;10.30;99.90;;;;;;5085047;28;20036;-89
2023/01/11 02:12:47;;;;;;;5.90;4.18;;;10.30;99.90;;;;;;5064240;28;20048;-89
2023/01/11 02:15:14;;;;;;;4.88;3.72;;;10.40;99.90;;;;;;5079917;28;20036;-89
2023/01/11 02:17:39;;;;;;;6.07;4.25;;;10.40;99.90;;;;;;5081674;28;20032;-90
2023/01/11 02:20:28;;;;;;;4.80;3.70;;;10.30;99.90;;;;;;5069907;28;20122;-91
2023/01/11 02:22:54;;;;;;;5.28;4.32;;;10.40;99.90;;;;;;5052761;28;20048;-88
2023/01/11 02:25:38;;;;;;;5.15;3.97;;;10.40;99.90;;;;;;5066340;28;20275;-89
2023/01/11 02:28:23;;;;;;;7.05;3.90;;;10.40;99.90;;;;;;5065850;28;20033;-90
2023/01/11 02:31:21;;;;;;;4.50;3.75;;;10.40;99.90;;;;;;5081455;28;20233;-91
2023/01/11 02:33:59;;;;;;;3.70;3.33;;;10.50;99.90;;;;;;5081549;28;20074;-90
2023/01/11 02:36:58;;;;;;;4.80;3.55;;;10.50;99.90;;;;;;5066998;28;20123;-90
2023/01/11 02:39:55;;;;;;;4.20;3.63;;;10.50;99.90;;;;;;5083817;28;20033;-89
2023/01/11 02:45:34;;;;;;;4.15;3.47;;;10.60;99.90;;;;;;5083722;28;20044;-89
2023/01/11 02:48:30;;;;;;;6.05;3.17;;;10.60;99.90;;;;;;5083441;28;20067;-89
2023/01/11 02:50:58;;;;;;;4.53;3.28;;;10.60;99.90;;;;;;5082157;28;20037;-89
2023/01/11 02:53:42;;;;;;;4.00;3.13;;;10.60;99.90;;;;;;5080656;28;20111;-89
2023/01/11 02:56:15;;;;;;;5.15;3.40;;;10.70;99.90;;;;;;5064638;28;20051;-89
2023/01/11 02:58:44;;;;;;;4.25;3.60;;;10.70;99.90;;;;;;5068357;28;20040;-89
2023/01/11 03:01:11;;;;;;;5.30;3.58;;;10.70;99.90;;;;;;5084009;28;20036;-90
2023/01/11 03:03:36;;;;;;;4.80;3.80;;;10.70;99.90;;;;;;5083776;28;20428;-90
2023/01/11 03:06:07;;;;;;;4.80;3.65;;;10.70;99.90;;;;;;5085149;28;20485;-90
2023/01/11 03:08:40;;;;;;;4.93;4.00;;;10.70;99.90;;;;;;5083295;28;20077;-89
2023/01/11 03:11:09;;;;;;;5.85;3.90;;;10.70;99.90;;;;;;5070451;28;20079;-89
2023/01/11 03:14:15;;;;;;;4.90;3.72;;;10.70;99.90;;;;;;5068456;28;20541;-89
2023/01/11 03:17:19;;;;;;;4.43;3.42;;;10.70;99.90;;;;;;5080595;28;20283;-88
2023/01/11 03:20:26;;;;;;;3.97;3.00;;;10.80;99.90;;;;;;5061628;28;20056;-89
2023/01/11 03:23:20;;;;;;;4.15;3.50;;;10.80;99.90;;;;;;5067979;27;20481;-89
2023/01/11 03:25:59;;;;;;;3.40;2.85;;;10.80;99.90;;;;;;5065678;28;20044;-91
2023/01/11 03:28:41;;;;;;;4.03;2.80;;;10.90;99.90;;;;;;5081514;28;20182;-90
2023/01/11 03:31:19;;;;;;;3.47;2.20;;;10.90;99.90;;;;;;5067220;28;20399;-89
2023/01/11 03:34:16;;;;;;;2.13;1.80;;;10.90;99.90;;;;;;5070789;28;20102;-90
2023/01/11 03:36:52;;;;;;;2.60;1.75;;;11.00;99.90;;;;;;5084865;28;20282;-90
2023/01/11 03:39:40;;;;;;;2.22;1.60;;;11.00;99.90;;;;;;5081785;28;20038;-88
2023/01/11 03:42:08;;;;;;;2.55;1.70;;;11.00;99.90;;;;;;5063983;28;20120;-89
2023/01/11 03:44:41;;;;;;;2.15;1.73;;;11.00;99.90;;;;;;5064746;28;20039;-90
2023/01/11 03:47:10;;;;;;;1.80;1.35;;;11.00;99.90;;;;;;5084197;28;20028;-88
2023/01/11 03:49:50;;;;;;;2.72;1.30;;;11.00;99.90;;;;;;5068248;28;20442;-89
2023/01/11 03:52:20;;;;;;;1.65;1.42;;;11.10;99.90;;;;;;5099999;27;20390;-89
2023/01/11 03:54:49;;;;;;;3.15;1.50;;;11.10;99.90;;;;;;5064599;28;20046;-89
2023/01/11 03:57:17;;;;;;;2.97;1.60;;;11.10;99.90;;;;;;5081036;28;20043;-89
2023/01/11 03:59:43;;;;;;;2.83;2.15;;;11.10;99.90;;;;;;5083629;28;20870;-90
2023/01/11 04:02:27;;;;;;;2.88;2.08;;;11.20;99.90;;;;;;5069719;28;20043;-89
2023/01/11 04:04:55;;;;;;;2.33;1.90;;;11.20;99.90;;;;;;5081801;28;20036;-90
2023/01/11 04:07:21;;;;;;;2.60;2.20;;;11.10;99.90;;;;;;5068481;28;20760;-90
2023/01/11 04:09:46;;;;;;;2.78;2.08;;;11.20;99.90;;;;;;5064697;28;20035;-89
2023/01/11 04:12:12;;;;;;;5.22;2.55;;;11.20;99.90;;;;;;5071594;28;20042;-88
2023/01/11 04:14:37;;;;;;;5.75;2.70;;;11.20;99.90;;;;;;5068868;28;20431;-89
2023/01/11 04:17:04;;;;;;;5.63;3.30;;;11.20;99.90;;;;;;5084150;28;20482;-89
2023/01/11 04:19:29;;;;;;;6.72;3.47;;;11.20;99.90;;;;;;5078589;28;20040;-89
2023/01/11 04:21:55;;;;;;;7.60;4.18;;;11.30;99.90;;;;;;5077318;28;20035;-89
2023/01/11 04:24:23;;;;;;;8.68;4.40;;;11.30;99.90;;;;;;5064155;28;20063;-91
2023/01/11 04:26:49;;;;;;;9.73;4.18;;;11.40;99.90;;;;;;5080023;28;20120;-89
2023/01/11 04:29:15;;;;;;;9.48;4.20;;;11.40;99.90;;;;;;5080238;28;20025;-90
2023/01/11 04:31:41;;;;;;;11.27;4.45;;;11.40;99.90;;;;;;5067858;28;20120;-89
2023/01/11 04:34:07;;;;;;;10.65;4.75;;;11.40;99.90;;;;;;5068715;28;20160;-89
2023/01/11 04:36:32;;;;;;;11.32;4.80;;;11.40;99.90;;;;;;5082215;28;20039;-89
2023/01/11 04:38:58;;;;;;;11.02;4.60;;;11.40;99.90;;;;;;5064837;28;20044;-91
2023/01/11 04:44:08;;;;;;;17.30;5.20;;;11.40;99.90;;;;;;5082292;28;20043;-89
2023/01/11 04:46:34;;;;;;;20.67;4.90;;;11.40;99.90;;;;;;5079869;28;20035;-89
2023/01/11 04:49:03;;;;;;;16.17;5.65;;;11.40;99.90;;;;;;5066749;28;20051;-92
2023/01/11 04:51:29;;;;;;;17.52;5.28;;;11.40;99.90;;;;;;5067444;28;20063;-89
2023/01/11 04:53:54;;;;;;;21.70;5.22;;;11.40;99.90;;;;;;5064631;28;20475;-90
2023/01/11 04:56:20;;;;;;;21.63;5.38;;;11.30;99.90;;;;;;5080291;28;20051;-89
2023/01/11 04:58:49;;;;;;;20.85;5.15;;;11.30;99.90;;;;;;5080180;28;20459;-90
2023/01/11 05:01:17;;;;;;;18.55;4.57;;;11.30;99.90;;;;;;5083395;28;20505;-91
2023/01/11 05:03:44;;;;;;;14.15;4.65;;;11.30;99.90;;;;;;5078822;28;20036;-88
2023/01/11 05:06:10;;;;;;;19.35;4.80;;;11.30;99.90;;;;;;5081817;28;20043;-90
2023/01/11 05:08:39;;;;;;;13.68;3.58;;;11.20;99.90;;;;;;5066631;28;20032;-90
2023/01/11 05:11:06;;;;;;;25.42;4.95;;;11.20;99.90;;;;;;5063705;28;20281;-91
2023/01/11 05:13:42;;;;;;;22.17;4.07;;;11.20;99.90;;;;;;5080614;28;20063;-89
2023/01/11 05:16:16;;;;;;;15.57;3.55;;;11.10;99.90;;;;;;5065742;28;20052;-89
2023/01/11 05:18:43;;;;;;;;;;;11.00;99.90;;;;;;5084507;28;20032;-89
2023/01/11 05:21:15;;;;;;;14.63;3.17;;;10.90;99.90;;;;;;5084890;28;19915;-90
2023/01/11 05:23:42;;;;;;;13.98;3.35;;;10.80;99.90;;;;;;5081897;28;20054;-89
2023/01/11 05:26:22;;;;;;;13.02;3.13;;;10.80;99.90;;;;;;5082890;28;20471;-90
2023/01/11 05:28:48;;;;;;;15.48;3.40;;;10.80;99.90;;;;;;5080476;28;20072;-90
2023/01/11 05:31:18;;;;;;;16.45;4.55;;;10.80;99.90;;;;;;5079644;28;20036;-89
2023/01/11 05:33:44;;;;;;;21.27;4.22;;;10.80;99.90;;;;;;5082297;28;20028;-88
2023/01/11 05:36:12;;;;;;;23.08;4.50;;;10.80;99.90;;;;;;5076865;28;20145;-89
2023/01/11 05:38:38;;;;;;;17.02;4.35;;;10.80;99.90;;;;;;5081466;28;20536;-89
2023/01/11 05:41:08;;;;;;;21.10;3.88;;;10.80;99.90;;;;;;5089815;28;20127;-89
2023/01/11 05:46:19;;;;;;;20.52;4.38;;;10.80;99.90;;;;;;5085704;28;20047;-90
2023/01/11 05:48:45;;;;;;;22.90;4.45;;;10.80;99.90;;;;;;5085063;28;20033;-89
2023/01/11 05:51:11;;;;;;;19.83;4.13;;;10.80;99.90;;;;;;5073024;28;20384;-89
2023/01/11 05:53:36;;;;;;;17.75;5.10;;;10.70;99.90;;;;;;5067086;28;20046;-90
2023/01/11 05:56:02;;;;;;;17.83;4.80;;;10.70;99.90;;;;;;5085172;28;20628;-90
2023/01/11 05:58:28;;;;;;;20.52;3.80;;;10.70;99.90;;;;;;5070029;28;20096;-89
2023/01/11 06:00:56;;;;;;;11.80;3.60;;;10.60;99.90;;;;;;5069444;28;20047;-89
2023/01/11 06:03:24;;;;;;;14.48;3.33;;;10.60;99.90;;;;;;5085920;28;20299;-89
2023/01/11 06:05:51;;;;;;;19.08;3.40;;;10.60;99.90;;;;;;5091704;28;20483;-89
2023/01/11 06:08:17;;;;;;;19.65;3.10;;;10.60;99.90;;;;;;5067818;28;20367;-90
2023/01/11 06:10:45;;;;;;;20.58;3.83;;;10.60;99.90;;;;;;5085564;28;20195;-89
2023/01/11 06:13:25;;;;;;;17.42;3.15;;;10.60;99.90;;;;;;5069397;28;20075;-91
2023/01/11 06:16:01;;;;;;;18.88;4.07;;;10.50;99.90;;;;;;5071926;28;20043;-89
2023/01/11 06:18:35;;;;;;;23.38;3.88;;;10.50;99.90;;;;;;5067511;28;20039;-89
2023/01/11 06:21:02;;;;;;;21.88;3.92;;;10.40;99.90;;;;;;5088082;28;20044;-89
2023/01/11 06:23:29;;;;;;;17.38;3.42;;;10.40;99.90;;;;;;5082179;28;20593;-89
2023/01/11 06:25:55;;;;;;;16.38;3.42;;;10.40;99.90;;;;;;5069829;28;20048;-90
2023/01/11 06:28:24;;;;;;;17.85;3.70;;;10.30;99.90;;;;;;5081982;28;20089;-89
2023/01/11 06:30:57;;;;;;;20.83;3.40;;;10.20;99.90;;;;;;5084544;28;20355;-90
2023/01/11 06:33:24;;;;;;;23.85;4.10;;;10.20;99.90;;;;;;5085250;28;20040;-90
2023/01/11 06:35:50;;;;;;;26.00;4.32;;;10.20;99.90;;;;;;5068683;28;20036;-88
2023/01/11 06:38:17;;;;;;;22.35;3.95;;;10.20;99.90;;;;;;5081786;28;20054;-89
2023/01/11 06:40:54;;;;;;;20.77;3.90;;;10.20;99.90;;;;;;5078839;28;20047;-89
2023/01/11 06:43:20;;;;;;;19.05;3.85;;;10.20;99.90;;;;;;5082604;28;20449;-89
2023/01/11 06:45:46;;;;;;;20.50;3.78;;;10.20;99.90;;;;;;5067371;28;20490;-90
2023/01/11 06:48:12;;;;;;;23.33;3.97;;;10.20;99.90;;;;;;5088995;28;20042;-90
2023/01/11 06:50:40;;;;;;;27.83;3.90;;;10.20;99.90;;;;;;5082669;28;20471;-90
2023/01/11 06:53:06;;;;;;;23.45;3.88;;;10.10;99.90;;;;;;5083517;28;20099;-89
2023/01/11 06:55:32;;;;;;;13.77;3.38;;;10.10;99.90;;;;;;5070093;28;20470;-88
2023/01/11 06:58:00;;;;;;;16.35;3.28;;;10.10;99.90;;;;;;5069890;28;20071;-89
2023/01/11 07:00:26;;;;;;;17.40;3.50;;;10.00;99.90;;;;;;5088250;28;20043;-89
2023/01/11 07:02:51;;;;;;;19.52;3.60;;;10.10;99.90;;;;;;5074674;28;20040;-90
2023/01/11 07:05:17;;;;;;;18.23;3.50;;;10.10;99.90;;;;;;5067589;28;20110;-90
2023/01/11 07:07:43;;;;;;;17.80;3.08;;;10.10;99.90;;;;;;5062804;28;20068;-88
2023/01/11 07:10:15;;;;;;;19.67;4.30;;;10.10;99.90;;;;;;5078432;28;20040;-89
2023/01/11 07:12:41;;;;;;;21.15;3.63;;;10.10;99.90;;;;;;5081269;28;20358;-89
2023/01/11 07:15:09;;;;;;;16.17;2.65;;;10.10;99.90;;;;;;5067822;28;20224;-88
2023/01/11 07:17:35;;;;;;;13.57;2.95;;;10.10;99.90;;;;;;5081853;28;20032;-89
2023/01/11 07:20:01;;;;;;;16.33;3.42;;;10.10;99.90;;;;;;5068469;28;20043;-89
2023/01/11 07:22:42;;;;;;;16.52;3.40;;;10.00;99.90;;;;;;5068640;28;20066;-90
2023/01/11 07:25:08;;;;;;;15.20;3.15;;;9.90;99.90;;;;;;5083107;28;20123;-89
2023/01/11 07:27:33;;;;;;;11.75;2.88;;;9.90;99.90;;;;;;5070943;28;20173;-88
2023/01/11 07:29:59;;;;;;;18.55;4.53;;;9.90;99.90;;;;;;5086874;28;20046;-88
2023/01/11 07:32:26;;;;;;;17.33;3.05;;;9.90;99.90;;;;;;5064863;28;20047;-89
2023/01/11 07:34:55;;;;;;;17.65;3.30;;;9.80;99.90;;;;;;5100436;27;20050;-88
2023/01/11 07:37:24;;;;;;;17.80;3.13;;;9.70;99.90;;;;;;5075291;28;20052;-88
2023/01/11 07:39:50;;;;;;;18.85;3.30;;;9.70;99.90;;;;;;5075972;28;20059;-89
2023/01/11 07:45:00;;;;;;;14.90;3.40;;;9.70;99.90;;;;;;5082535;28;20064;-89
2023/01/11 07:47:26;;;;;;;19.13;3.80;;;9.80;99.90;;;;;;5069188;28;20063;-89
2023/01/11 07:49:52;;;;;;;17.40;3.50;;;9.80;99.90;;;;;;5083632;28;20047;-88
2023/01/11 07:52:18;;;;;;;15.80;3.92;;;9.80;99.90;;;;;;5095530;28;20040;-89
2023/01/11 07:54:44;;;;;;;18.77;3.75;;;9.80;99.90;;;;;;5088991;28;20044;-89
2023/01/11 07:57:09;;;;;;;14.57;3.55;;;9.80;99.90;;;;;;5079214;28;20498;-91
2023/01/11 07:59:35;;;;;;;17.83;3.60;;;9.90;99.90;;;;;;5070493;28;20046;-88
2023/01/11 08:02:01;;;;;;;17.90;3.38;;;9.90;99.90;;;;;;5064138;28;20864;-89
2023/01/11 08:04:26;;;;;;;13.40;3.25;;;9.90;99.90;;;;;;5065934;28;20289;-89
2023/01/11 08:06:52;;;;;;;16.35;3.40;;;9.90;99.90;;;;;;5064671;28;20390;-89
2023/01/11 08:09:18;;;;;;;14.07;2.92;;;9.90;99.90;;;;;;5064679;28;20040;-89
2023/01/11 08:14:40;;;;;;;13.68;3.00;;;9.90;99.90;;;;;;5096632;27;20140;-88
2023/01/11 08:17:11;;;;;;;12.27;3.45;;;9.90;99.90;;;;;;5079811;28;20039;-90
2023/01/11 08:19:37;;;;;;;13.27;3.00;;;9.90;99.90;;;;;;5064194;28;20126;-88
2023/01/11 08:22:03;;;;;;;16.40;3.22;;;9.90;99.90;;;;;;5078851;28;20058;-89
2023/01/11 08:24:33;;;;;;;12.00;2.80;;;9.80;99.90;;;;;;5065795;28;20190;-87
2023/01/11 08:26:59;;;;;;;13.23;2.60;;;9.70;99.90;;;;;;5078881;28;20036;-89
2023/01/11 08:29:29;;;;;;;14.45;3.42;;;9.60;99.90;;;;;;5079179;28;20042;-88
2023/01/11 08:32:03;;;;;;;15.15;2.90;;;9.50;99.90;;;;;;5080880;28;20055;-89
2023/01/11 08:34:33;;;;;;;19.27;3.38;;;9.50;99.90;;;;;;5072528;28;20043;-89
2023/01/11 08:37:00;;;;;;;9.60;2.90;;;9.40;99.90;;;;;;5078612;28;20052;-89
2023/01/11 08:39:29;;;;;;;14.07;2.90;;;9.40;99.90;;;;;;5079866;28;20387;-89
2023/01/11 08:41:58;;;;;;;14.48;2.47;;;9.30;99.90;;;;;;5078281;28;20036;-88
2023/01/11 08:44:27;;;;;;;16.40;3.13;;;9.30;99.90;;;;;;5082393;28;20039;-89
2023/01/11 08:46:52;;;;;;;15.45;2.78;;;9.30;99.90;;;;;;5068202;28;20670;-88
2023/01/11 08:49:18;;;;;;;13.07;2.40;;;9.30;99.90;;;;;;5064691;28;20040;-89
2023/01/11 08:51:43;;;;;;;11.75;2.50;;;9.30;99.90;;;;;;5064561;28;20051;-90
2023/01/11 08:54:12;;;;;;;16.95;2.67;;;9.30;99.90;;;;;;5062060;28;20040;-89
2023/01/11 08:56:40;;;;;;;9.90;2.92;;;9.20;99.90;;;;;;5062578;28;20118;-89
2023/01/11 08:59:08;;;;;;;12.43;2.30;;;9.30;99.90;;;;;;5064388;28;20634;-88
2023/01/11 09:01:34;;;;;;;12.25;2.65;;;9.20;99.90;;;;;;5094063;27;20576;-89
2023/01/11 09:03:59;;;;;;;12.07;2.25;;;9.20;99.90;;;;;;5079207;28;20046;-89
2023/01/11 09:06:25;;;;;;;8.57;2.10;;;9.10;99.90;;;;;;5063110;28;20116;-90
2023/01/11 09:08:51;;;;;;;12.80;2.50;;;9.10;99.90;;;;;;5075613;28;20050;-90
2023/01/11 09:14:05;;;;;;;8.93;2.20;;;9.00;99.90;;;;;;5094990;27;20126;-88
2023/01/11 09:16:30;;;;;;;15.60;2.50;;;9.10;99.90;;;;;;5079638;28;20135;-89
2023/01/11 09:18:56;;;;;;;9.50;2.33;;;9.10;99.90;;;;;;5079297;28;20438;-90
2023/01/11 09:21:22;;;;;;;8.75;2.50;;;9.10;99.90;;;;;;5076239;28;20044;-88
2023/01/11 09:23:52;;;;;;;8.70;2.08;;;9.20;99.90;;;;;;5076809;28;20106;-89
2023/01/11 09:26:18;;;;;;;13.55;2.90;;;9.20;99.90;;;;;;5060419;28;20329;-90
2023/01/11 09:28:43;;;;;;;11.85;2.35;;;9.30;99.90;;;;;;5062584;28;20039;-89
2023/01/11 09:31:09;;;;;;;14.35;2.83;;;9.40;99.90;;;;;;5062842;28;20039;-90
2023/01/11 09:33:35;;;;;;;13.00;2.15;;;9.40;99.90;;;;;;5062761;28;20134;-88
2023/01/11 09:36:01;;;;;;;12.23;2.80;;;9.50;99.90;;;;;;5063250;28;20044;-90
2023/01/11 09:38:32;;;;;;;12.18;2.47;;;9.60;99.90;;;;;;5062836;28;20096;-90
2023/01/11 09:41:30;;;;;;;8.50;2.38;;;9.60;99.90;;;;;;5060995;28;20039;-91
2023/01/11 09:44:09;;;;;;;8.20;2.28;;;9.60;99.90;;;;;;5068305;28;20069;-90
2023/01/11 09:46:38;;;;;;;14.75;2.50;;;9.50;99.90;;;;;;5075744;28;20043;-90
2023/01/11 09:49:06;;;;;;;12.35;2.25;;;9.50;99.90;;;;;;5062259;28;20101;-89
2023/01/11 09:51:38;;;;;;;11.55;2.30;;;9.40;99.90;;;;;;5075136;28;20072;-90
2023/01/11 09:54:09;;;;;;;10.75;2.20;;;9.40;99.90;;;;;;5061918;28;20463;-88
2023/01/11 09:56:46;;;;;;;18.42;2.55;;;9.40;99.90;;;;;;5076079;28;20427;-90
2023/01/11 09:59:26;;;;;;;11.60;2.20;;;9.40;99.90;;;;;;5062422;28;20036;-89
2023/01/11 10:02:08;;;;;;;13.38;2.10;;;9.40;99.90;;;;;;5073331;28;20032;-89
2023/01/11 10:04:41;;;;;;;7.40;1.88;;;9.50;99.90;;;;;;5063931;28;20048;-89
2023/01/11 10:07:57;;;;;;;12.98;1.95;;;9.50;99.90;;;;;;5062553;28;20524;-89
2023/01/11 10:10:42;;;;;;;12.83;2.10;;;9.50;99.90;;;;;;4972314;28;20061;-90
2023/01/11 10:14:06;;;;;;;10.88;2.08;;;9.50;99.90;;;;;;5082914;28;20046;-90
2023/01/11 10:17:19;;;;;;;10.55;2.17;;;9.60;99.90;;;;;;5062165;28;20415;-91
2023/01/11 10:19:52;;;;;;;10.43;1.92;;;9.60;99.90;;;;;;5064908;28;20045;-88
2023/01/11 10:22:23;;;;;;;12.85;2.63;;;9.60;99.90;;;;;;5078435;28;20382;-90
2023/01/11 10:25:09;;;;;;;8.68;1.80;;;9.70;99.90;;;;;;5096908;28;20052;-90
2023/01/11 10:27:39;;;;;;;11.50;2.33;;;9.70;99.90;;;;;;5082386;28;20036;-88
2023/01/11 10:33:24;;;;;;;7.55;2.20;;;9.70;99.90;;;;;;5097786;27;20541;-89
2023/01/11 10:41:36;;;;;;;14.10;3.33;;;9.90;99.90;;;;;;5082680;28;20059;-89
2023/01/11 10:44:08;;;;;;;12.52;2.90;;;9.80;99.90;;;;;;5080812;28;20111;-89
2023/01/11 10:46:38;;;;;;;12.48;3.15;;;9.90;99.90;;;;;;5079415;28;20036;-89
2023/01/11 10:49:32;;;;;;;13.38;3.05;;;9.90;99.90;;;;;;5089318;28;20036;-90
2023/01/11 10:52:11;;;;;;;10.48;2.17;;;9.80;99.90;;;;;;5085051;28;20530;-88
2023/01/11 10:54:37;;;;;;;14.73;2.90;;;9.90;99.90;;;;;;5084404;28;20130;-90
2023/01/11 10:57:36;;;;;;;14.30;2.60;;;9.90;99.90;;;;;;5065933;28;20128;-89
2023/01/11 11:00:30;;;;;;;16.52;3.13;;;9.80;99.90;;;;;;5067429;28;20485;-89
2023/01/11 11:03:14;;;;;;;12.18;3.33;;;9.80;99.90;;;;;;5078010;28;20040;-89
2023/01/11 11:06:01;;;;;;;13.57;3.83;;;9.90;99.90;;;;;;5068393;28;20039;-89
2023/01/11 11:08:50;;;;;;;14.15;3.00;;;9.90;99.90;;;;;;5081927;28;20489;-88
2023/01/11 11:11:37;;;;;;;9.85;2.90;;;9.90;99.90;;;;;;5077690;28;20122;-88
2023/01/11 11:14:32;;;;;;;16.35;3.35;;;9.90;99.90;;;;;;5077761;28;20043;-89
2023/01/11 11:17:18;;;;;;;13.52;3.38;;;9.80;99.90;;;;;;5076065;28;20543;-89
2023/01/11 11:19:44;;;;;;;11.60;2.90;;;9.70;99.90;;;;;;5096957;27;20062;-88
2023/01/11 11:22:11;;;;;;;16.48;2.95;;;9.70;99.90;;;;;;5064769;28;20036;-89
2023/01/11 11:24:46;;;;;;;13.13;3.10;;;9.80;99.90;;;;;;5078341;28;20052;-88
2023/01/11 11:27:36;;;;;;;14.00;2.85;;;9.80;99.90;;;;;;5064905;28;20043;-88
2023/01/11 11:30:02;;;;;;;16.08;3.20;;;9.70;99.90;;;;;;5080943;28;20862;-90
2023/01/11 11:32:35;;;;;;;12.57;3.78;;;9.70;99.90;;;;;;5078912;28;20050;-89
2023/01/11 11:35:04;;;;;;;13.10;2.90;;;9.80;99.90;;;;;;5079940;28;20517;-89
2023/01/11 11:37:44;;;;;;;16.63;3.50;;;9.90;99.90;;;;;;5080003;28;20407;-89
2023/01/11 11:40:29;;;;;;;15.88;2.80;;;9.90;99.90;;;;;;5064757;28;20413;-89
2023/01/11 11:43:20;;;;;;;15.95;3.33;;;9.90;99.90;;;;;;5078041;28;20556;-90
2023/01/11 11:45:54;;;;;;;14.93;3.08;;;9.90;99.90;;;;;;5079232;28;20041;-88
2023/01/11 11:48:24;;;;;;;11.00;2.70;;;10.00;99.90;;;;;;5063832;28;20127;-88
2023/01/11 11:50:52;;;;;;;13.68;3.30;;;10.00;99.90;;;;;;5063282;28;20050;-89
2023/01/11 11:53:41;;;;;;;22.33;3.30;;;10.00;99.90;;;;;;5062719;28;20036;-87
2023/01/11 11:56:20;;;;;;;15.38;3.35;;;10.00;99.90;;;;;;5062822;28;20039;-91
2023/01/11 11:58:46;;;;;;;12.95;2.88;;;10.00;99.90;;;;;;5073757;28;20192;-88
2023/01/11 12:01:56;;;;;;;17.58;3.70;;;9.90;99.90;;;;;;5096097;27;20421;-89
2023/01/11 12:04:31;;;;;;;16.15;3.60;;;9.80;99.90;;;;;;5021237;28;20045;-88
2023/01/11 12:07:02;;;;;;;;;;;9.80;99.90;;;;;;5018812;28;20041;-88
2023/01/11 12:09:30;;;;;;;16.77;3.22;;;9.80;99.90;;;;;;5037982;28;20023;-90
2023/01/11 12:11:59;;;;;;;15.00;2.90;;;9.80;99.90;;;;;;5094174;27;20046;-89
2023/01/11 12:14:27;;;;;;;14.23;3.03;;;9.90;99.90;;;;;;5097752;27;20035;-88
2023/01/11 12:16:56;;;;;;;20.13;3.83;;;10.00;99.90;;;;;;5062904;28;20055;-89
2023/01/11 12:19:31;;;;;;;14.18;2.88;;;10.00;99.90;;;;;;5064437;28;20040;-88
2023/01/11 12:22:11;;;;;;;15.57;3.13;;;9.90;99.90;;;;;;5061633;28;20040;-88
2023/01/11 12:24:36;;;;;;;13.02;2.88;;;9.80;99.90;;;;;;5080775;28;20130;-88
2023/01/11 12:27:26;;;;;;;17.13;3.53;;;9.80;99.90;;;;;;5076474;28;20051;-88
2023/01/11 12:30:07;;;;;;;15.02;3.17;;;9.90;99.90;;;;;;5062797;28;20044;-89
2023/01/11 12:33:06;;;;;;;15.00;3.60;;;10.00;99.90;;;;;;5080059;28;20047;-88
2023/01/11 12:35:44;;;;;;;19.58;3.30;;;10.00;99.90;;;;;;5081598;28;20052;-89
2023/01/11 12:38:20;;;;;;;14.25;3.13;;;10.00;99.90;;;;;;5061236;28;20036;-89
2023/01/11 12:41:12;;;;;;;18.05;3.17;;;10.00;99.90;;;;;;5064450;28;20059;-88
2023/01/11 12:43:38;;;;;;;21.65;3.63;;;10.00;99.90;;;;;;5078646;28;20671;-88
2023/01/11 12:46:28;;;;;;;20.58;2.83;;;10.00;99.90;;;;;;5065675;28;20036;-89
2023/01/11 12:49:18;;;;;;;13.43;4.45;;;9.90;99.90;;;;;;5073659;28;20075;-89
2023/01/11 12:52:24;;;;;;;16.95;3.38;;;10.00;99.90;;;;;;5062251;28;20093;-88
2023/01/11 12:55:14;;;;;;;16.80;3.13;;;10.00;99.90;;;;;;5081053;28;20308;-88
2023/01/11 12:58:00;;;;;;;18.50;3.05;;;10.00;99.90;;;;;;5083053;28;20123;-88
2023/01/11 13:00:54;;;;;;;12.00;2.65;;;10.00;99.90;;;;;;5079079;28;20305;-89
2023/01/11 13:03:32;;;;;;;20.63;3.72;;;10.00;99.90;;;;;;5081131;28;20057;-88
2023/01/11 13:06:12;;;;;;;21.23;4.00;;;10.00;99.90;;;;;;5065442;28;20032;-90
2023/01/11 13:09:07;;;;;;;12.63;3.63;;;10.00;99.90;;;;;;5063363;28;20378;-88
2023/01/11 13:11:59;;;;;;;11.43;3.15;;;10.00;99.90;;;;;;5066744;28;20115;-88
2023/01/11 13:14:33;;;;;;;18.65;3.65;;;10.00;99.90;;;;;;5063090;28;20063;-88
2023/01/11 13:17:26;;;;;;;18.80;4.47;;;9.90;99.90;;;;;;5063498;28;20050;-89
2023/01/11 13:20:01;;;;;;;19.40;3.95;;;9.90;99.90;;;;;;5077296;28;20048;-88
2023/01/11 13:22:33;;;;;;;;;;;9.90;99.90;;;;;;5062127;28;20511;-89
2023/01/11 13:25:02;;;;;;;18.23;3.88;;;9.90;99.90;;;;;;5082516;28;19923;-88
2023/01/11 13:27:30;;;;;;;19.85;3.88;;;9.90;99.90;;;;;;5081652;28;20039;-89
2023/01/11 13:30:00;;;;;;;19.52;4.00;;;9.80;99.90;;;;;;5078123;28;20044;-87
2023/01/11 13:32:35;;;;;;;20.08;3.78;;;9.90;99.90;;;;;;5080291;28;20124;-89
2023/01/11 13:35:04;;;;;;;;;;;9.80;99.90;;;;;;5079424;28;20506;-89
2023/01/11 13:38:03;;;;;;;20.35;3.50;;;9.80;99.90;;;;;;5065162;28;20270;-89
2023/01/11 13:40:33;;;;;;;19.98;3.55;;;9.80;99.90;;;;;;5081748;28;20413;-89
2023/01/11 13:43:05;;;;;;;16.30;3.50;;;9.80;99.90;;;;;;5079283;28;20228;-88
2023/01/11 13:45:37;;;;;;;15.60;3.40;;;9.90;99.90;;;;;;5065339;28;20068;-88
2023/01/11 13:48:41;;;;;;;18.73;3.92;;;10.00;99.90;;;;;;5081621;28;20158;-89
2023/01/11 13:51:20;;;;;;;21.70;4.32;;;10.10;99.90;;;;;;5078342;28;20706;-89
2023/01/11 13:53:59;;;;;;;13.25;3.10;;;10.20;99.90;;;;;;5076000;28;20048;-87